首页
METAR-TAF:

METAR-TAF

机场 :

Oscoda-Wurtsmith Airport

Oscoda, 密歇根州, 美国

纬度: 44-27N, 经度: 083-22W, 海拔: 193米

当前天气观测

该预报发布于13分钟前的20:35 UTC
风速3节,风向西
温度 19°C
湿度 60%
气压 1011 hPa
能見度: 16.1公里
散云层高于3800英尺
多云层高于4600英尺
多云层高于11000英尺

METAR: KOSC 292035Z AUTO 28003KT 10SM SCT038 BKN046 BKN110 19/11 A2985 RMK AO2 T01940105

时间: 16:48 (20:48 UTC)


TAF: 丢失

超过4000个机场的气象观测和天气预报(METAR&TAF报告)。

可查询的气象台以黄色和红色小点在地图上表示。

将鼠标移到小点上方,可查看气象台名称。

然后点击查看天气观测和预报。

如需切换地图:点击带黑十字的绿色按钮放大地图;点击带横线的绿色按钮缩小地图;或者点击绿色箭头查看邻近地区的地图。


METAR-TAF: